Seavoyager — 9HUM8 — position and weather

sailwx.info

Track history (hours):
 
Tides and Currents Weather Stations Pressure Air Temp Water Temp Dewpoint Dewpoint Depression Visibility Wind Speed Wind Dir Waves Ship Positions

Seavoyager

Last reported at 2014-Aug-01 13:33 UTC. Time now 2014-Aug-01 14:00 UTC.
Position N 33°09' E 033°26'.

Length 273 m; draft 15.2 m.

Type: Ship (hazmat cat A). MMSI: 256439000.

Date/timePositionNaut miles runAvg speedWind from/ knotsBaromVisibWave heightAir tempDewpointWater temp
2014-Aug-01 13:33N 33°09' E 033°26'1111.4
2014-Aug-01 12:32N 33°19' E 033°32'1111.3
2014-Aug-01 11:31N 33°29' E 033°38'1311.3
2014-Aug-01 10:21N 33°41' E 033°46'911.1
2014-Aug-01 09:33N 33°49' E 033°50'2211.0
2014-Aug-01 07:33N 34°09' E 034°03'1111.1
2014-Aug-01 06:32N 34°19' E 034°09'1111.1
2014-Aug-01 05:33N 34°28' E 034°15'2811.4
2014-Aug-01 03:05N 34°53' E 034°31'1211.4
2014-Aug-01 02:03N 35°04' E 034°37'611.3
2014-Aug-01 01:33N 35°09' E 034°40'  
2014-Jul-24 21:33N 35°51' E 032°52'1510.3
2014-Jul-24 20:08N 35°49' E 032°34'  
Track history (hours):
 
Tides and Currents Weather Stations Pressure Air Temp Water Temp Dewpoint Dewpoint Depression Visibility Wind Speed Wind Dir Waves Ship Positions

Seavoyager

Last reported at 2014-Aug-01 13:33 UTC. Time now 2014-Aug-01 14:00 UTC.
Position N 33°09' E 033°26'.

Length 273 m; draft 15.2 m.

Type: Ship (hazmat cat A). MMSI: 256439000.

Date/timePositionNaut miles runAvg speedWind from/ knotsBaromVisibWave heightAir tempDewpointWater temp
2014-Aug-01 13:33N 33°09' E 033°26'1111.4
2014-Aug-01 12:32N 33°19' E 033°32'1111.3
2014-Aug-01 11:31N 33°29' E 033°38'1311.3
2014-Aug-01 10:21N 33°41' E 033°46'911.1
2014-Aug-01 09:33N 33°49' E 033°50'2211.0
2014-Aug-01 07:33N 34°09' E 034°03'1111.1
2014-Aug-01 06:32N 34°19' E 034°09'1111.1
2014-Aug-01 05:33N 34°28' E 034°15'2811.4
2014-Aug-01 03:05N 34°53' E 034°31'1211.4
2014-Aug-01 02:03N 35°04' E 034°37'611.3
2014-Aug-01 01:33N 35°09' E 034°40'  
2014-Jul-24 21:33N 35°51' E 032°52'1510.3
2014-Jul-24 20:08N 35°49' E 032°34'  

Dump ship's entire track history